Außentemperatur Tagesdurchschnitt Außenfeuchte Tagesdurchschnitt Taupunkt Tagesdurchschnitt Windchill Tagesdurchschnitt Windgeschwindigkeit Tagesdurchschnitt Gesamtregen Mindesttemperatur Höchsttemperatur Höchste Windgeschwindigkeit  Tägliche Niederschlagsmenge 
                         
                         
max min mittel °C % °C °C km/h mm/m² °C °C km/h mm/m²
1.1.12 1013,8 1011,7 1012,7 5,6 95,3 4,9 5,2 2,3 11,3 1,2 9,9 33,4 11,3
2.1.12 1015,4 1006,4 1009,4 8,5 82,5 5,6 7,1 6,9 13,8 3,8 10,5 39,6 2,5
3.1.12 1019,9 1006,9 1015,2 4,2 65,3 -2,1 1,2 11,8 14,3 1,3 6,8 67,8 0,5
4.1.12 1014,8 1006,6 1010,6 3,7 68,9 -1,5 0,3 10,3 15,9 1,5 7,0 43,5 1,6
5.1.12 1010,4 985,7 993,4 1,1 85,4 -1,1 -2,5 11,3 36,6 0,2 3,2 52,2 20,7
6.1.12 1017,4 993,3 1006,0 0,4 76,4 -3,3 -1,7 7,2 41,9 -2,3 3,8 32,4 5,3
7.1.12 1017,9 1009,5 1013,1 0,7 81,6 -2,0 -1,3 7,6 47,9 -0,1 2,1 38,5 6,0
8.1.12 1018,6 1012,2 1014,4 1,3 82,8 -1,3 -0,2 6,5 58,2 0,8 2,4 27,0 10,3
9.1.12 1023,8 1018,5 1022,1 1,0 84,1 -1,4 0,2 4,6 79,3 0,4 1,7 19,0 21,1
10.1.12 1030,8 1022,6 1027,3 2,9 79,2 -0,5 1,7 5,3 87,6 0,8 7,1 29,5 8,3
11.1.12 1030,1 1028,6 1029,4 2,7 82,6 0,0 2,4 2,4 87,6 -0,5 4,4 20,8 0,0
12.1.12 1029,3 1014,7 1021,6 3,3 86,1 1,1 1,7 5,6 96,4 1,1 6,2 28,8 8,8
13.1.12 1018,7 1016,3 1017,3 0,6 73,2 -3,7 -3,2 10,4 98,0 -0,7 2,3 44,2 1,6
14.1.12 1020,9 1018,5 1019,7 -0,3 61,0 -7,0 -2,6 7,8 99,4 -3,6 3,4 26,6 1,4
15.1.12 1022,8 1020,2 1021,3 -2,3 58,3 -9,9 -2,8 3,6 100,0 -5,6 3,5 18,7 0,6
16.1.12 1024,3 1022,4 1023,3 -3,8 59,6 -10,7 -3,8 0,8 100,0 -7,1 0,8 11,1 0,0
17.1.12 1027,2 1023,6 1025,0 -2,8 66,4 -8,1 -2,9 2,2 100,0 -5,1 -0,9 9,0 0,0
18.1.12 1028,1 1021,8 1026,0 -2,1 48,3 -13,4 -2,6 2,0 100,5 -8,6 4,8 21,2 0,5
19.1.12 1021,6 1008,7 1014,8 1,7 84,8 -0,6 -0,2 6,7 114,8 -0,6 5,1 20,8 14,3
20.1.12 1011,3 1005,9 1009,6 0,5 74,3 -3,5 -1,3 5,6 118,4 -1,9 2,2 36,7 3,6
21.1.12 1013,5 998,2 1007,2 0,4 80,6 -2,6 -1,2 5,6 124,5 -1,2 4,8 21,6 6,1
22.1.12 1005,8 999,7 1003,4 1,8 77,9 -1,7 -2,0 10,9 131,5 0,9 3,0 42,4 7,0
23.1.12 1012,0 1004,2 1010,4 1,7 78,3 -1,7 -0,3 7,2 133,1 0,6 3,8 39,9 1,6
24.1.12 1019,2 1011,5 1015,2 0,2 78,5 -3,0 -0,1 3,1 133,4 -0,6 1,4 18,3 0,3
25.1.12 1020,8 1019,3 1020,2 -1,0 78,3 -4,3 -1,0 0,5 134,7 -6,5 3,3 11,1 1,3
26.1.12 1020,6 1019,1 1019,8 -5,5 65,7 -11,0 -5,8 1,7 134,7 -8,2 -0,9 21,6 0,0
27.1.12 1023,2 1019,7 1021,3 -4,4 61,0 -10,8 -4,5 1,4 134,7 -7,2 -0,7 19,8 0,0
28.1.12 1024,6 1023,0 1023,8 -3,4 72,0 -7,6 -3,4 0,5 134,7 -4,9 -0,4 13,3 0,0
29.1.12 1024,5 1022,9 1023,6 -3,9 63,8 -9,8 -4,4 2,8 134,7 -5,1 -1,4 23,4 0,0
30.1.12 1024,0 1022,6 1023,2 -5,3 45,1 -15,9 -5,5 2,0 134,7 -7,9 -0,9 27,3 0,0
31.1.12 1022,8 1020,3 1021,3 -7,7 34,2 -21,2 -9,7 6,1 134,7 -10,2 -4,5 33,8 0,0
1.2.12 1024,9 1022,6 1023,8 -12,2 42,4 -22,9 -13,5 3,9 134,7 -16,7 -5,6 16,5 0,0
2.2.12 1027,7 1024,5 1025,8 -15,4 38,8 -27,2 -16,3 2,7 134,7 -20,4 -8,3 21,9 0,0
3.2.12 1030,6 1026,7 1028,1 -16,3 37,8 -28,1 -16,4 1,2 134,7 -23,9 -4,7 13,3 0,0
4.2.12 1032,0 1030,6 1031,1 -15,5 43,6 -25,6 -16,0 2,1 134,7 -20,9 -7,4 23,0 0,0
5.2.12 1030,8 1027,9 1029,0 -17,3 34,1 -30,3 -17,4 0,8 134,7 -24,4 -7,4 21,9 0,0
6.2.12 1029,4 1027,9 1028,7 -17,8 38,5 -29,3 -18,0 1,7 134,7 -23,2 -9,4 19,0 0,0
7.2.12 1031,2 1028,3 1029,3 -16,8 48,8 -25,0 -19,1 5,8 134,7 -20,4 -12,9 27,0 0,0
8.2.12 1032,1 1030,6 1031,4 -11,7 52,4 -19,7 -12,7 4,4 134,7 -14,3 -5,9 25,2 0,0
9.2.12 1034,7 1028,1 1031,2 -10,4 62,7 -16,1 -11,2 3,3 134,7 -13,9 -5,9 25,9 0,0
10.2.12 1037,0 1033,5 1035,7 -13,0 52,5 -20,8 -14,4 4,7 134,7 -18,7 -6,4 21,2 0,0
11.2.12 1035,3 1031,3 1032,6 -17,3 42,5 -27,5 -17,7 2,0 134,7 -24,1 -7,9 24,8 0,0
12.2.12 1032,1 1026,8 1029,6 -16,1 36,8 -28,3 -16,1 0,2 134,7 -25,6 -2,1 7,8 0,0
13.2.12 1026,9 1018,1 1022,1 -8,9 51,7 -17,1 -9,2 2,1 134,7 -17,7 -5,9 15,4 0,0
14.2.12 1018,0 1010,9 1015,7 -5,2 69,5 -9,9 -5,7 2,7 134,7 -8,0 -2,3 25,2 0,0
15.2.12 1013,2 1000,9 1006,1 -0,1 67,6 -5,7 -6,7 15,4 134,7 -2,3 3,2 44,6 0,0
16.2.12 1024,0 1013,4 1021,0 -0,2 51,5 -9,8 -1,7 5,6 137,0 -3,6 6,2 21,9 2,3
17.2.12 1023,3 1020,8 1022,0 1,1 84,0 -1,3 -1,2 7,9 143,4 -1,1 3,1 27,0 6,4
18.2.12 1022,9 1015,5 1020,0 2,3 84,4 -0,1 1,6 3,6 143,4 1,2 3,8 29,1 0,0
19.2.12 1026,5 1011,6 1017,0 1,6 76,2 -2,2 0,7 4,1 152,1 -1,2 4,1 33,1 8,7
20.2.12 1034,8 1026,8 1032,4 -0,6 55,2 -9,6 -0,7 1,5 152,1 -6,5 6,4 16,5 0,0
21.2.12 1034,4 1031,2 1032,3 -2,9 56,5 -11,4 -3,6 3,2 152,1 -8,9 4,5 25,2 0,0
22.2.12 1033,5 1025,9 1031,1 2,9 62,0 -4,0 2,6 1,8 154,3 -0,9 9,8 20,8 2,2
23.2.12 1026,5 1022,0 1024,2 2,1 61,5 -5,9 0,0 7,0 154,3 0,6 4,2 30,9 0,0
24.2.12 1026,8 1024,2 1025,7 4,0 95,6 3,3 2,5 6,6 155,3 2,2 5,7 27,3 1,0
25.2.12 1025,7 1020,9 1023,6 5,1 71,1 -0,5 3,8 5,6 157,6 0,7 9,4 27,0 2,3
26.2.12 1026,8 1020,4 1022,8 1,8 68,5 -3,3 0,6 5,0 161,7 -0,9 5,2 31,9 4,1
27.2.12 1028,1 1024,9 1026,5 0,9 64,0 -5,4 0,2 3,1 161,9 -3,4 7,2 24,4 0,2
28.2.12 1025,4 1022,7 1023,9 2,7 88,5 1,0 1,0 6,6 165,1 0,7 4,8 31,3 3,2
29.2.12 1027,8 1024,0 1025,9 6,6 96,0 6,0 6,2 3,4 167,2 4,8 9,1 20,8 2,1
1.3.12 1028,3 1027,0 1027,6 7,3 91,8 6,0 7,3 0,3 167,5 4,4 12,7 10,4 0,3
2.3.12 1029,4 1027,9 1028,7 5,6 82,1 2,5 5,5 0,9 167,5 -0,3 12,8 16,9 0,0
3.3.12 1029,1 1025,8 1027,3 3,2 62,2 -4,3 2,8 1,8 167,5 -2,9 9,4 25,5 0,0
4.3.12 1026,8 1020,8 1024,2 3,2 52,7 -5,9 3,2 1,0 167,5 -0,9 6,0 15,4 0,0
5.3.12 1025,3 1017,7 1021,3 0,8 62,0 -6,1 0,4 2,1 167,5 -1,0 2,1 21,2 0,0
6.3.12 1029,4 1025,1 1027,0 2,4 52,8 -7,9 2,4 1,1 167,6 -5,0 12,8 14,0 0,1
7.3.12 1029,4 1018,0 1024,9 2,2 40,9 -11,2 1,8 1,9 167,6 -5,0 10,8 18,0 0,0
8.3.12 1033,9 1016,4 1023,3 2,1 67,7 -3,5 0,6 6,1 171,6 -1,5 6,0 29,5 4,0
9.3.12 1038,8 1033,9 1037,2 1,9 52,1 -8,6 1,5 2,0 171,6 -5,2 11,1 21,9 0,0
10.3.12 1037,9 1032,9 1035,5 2,2 61,0 -4,7 1,7 3,2 171,8 -3,3 7,2 24,1 0,2
11.3.12 1033,0 1030,2 1031,2 4,5 80,1 1,3 3,6 5,6 176,2 3,9 5,1 32,4 4,4
12.3.12 1031,5 1028,4 1029,8 5,9 82,3 3,0 4,2 7,6 177,1 4,2 8,5 27,0 0,9
13.3.12 1032,9 1031,2 1032,1 4,9 78,5 1,4 4,3 4,4 178,0 3,8 6,0 15,4 0,9
14.3.12 1033,2 1031,3 1032,3 3,7 72,4 -0,8 3,4 3,1 178,0 2,8 4,8 14,7 0,0
15.3.12 1033,3 1029,2 1031,2 6,5 51,8 -3,7 6,2 1,8 178,0 0,4 15,5 21,9 0,0
16.3.12 1029,5 1024,0 1026,5 8,9 51,0 -3,1 8,7 2,1 178,0 -2,8 22,5 26,6 0,0
17.3.12 1024,1 1019,6 1021,7 10,2 48,0 -3,3 9,9 2,5 178,0 -0,1 21,1 28,8 0,0
18.3.12 1021,7 1017,0 1018,9 8,5 52,8 -2,0 7,6 5,0 182,4 -0,2 19,8 33,8 4,4
19.3.12 1035,2 1022,0 1028,5 6,0 59,4 -2,9 5,6 3,1 183,2 -2,3 12,5 19,8 0,8
20.3.12 1037,5 1035,1 1036,1 4,4 47,0 -8,3 4,3 1,4 183,2 -5,7 14,3 18,3 0,0
21.3.12 1038,2 1035,8 1037,1 7,7 48,9 -4,3 7,6 1,5 183,2 -3,2 19,5 16,9 0,0
22.3.12 1036,7 1031,7 1034,2 7,8 68,6 1,7 7,5 2,3 183,2 -1,1 19,9 23,0 0,0
23.3.12 1031,9 1028,3 1029,8 8,3 72,5 2,5 8,1 1,9 183,2 0,5 19,8 19,8 0,0
24.3.12 1029,8 1027,8 1028,9 8,3 64,1 0,8 8,2 1,4 183,2 -0,6 18,0 24,8 0,0
25.3.12 1033,4 1029,7 1031,4 9,0 54,0 -2,5 8,7 2,7 183,2 -1,4 20,2 27,3 0,0
26.3.12 1036,3 1033,2 1034,8 7,3 49,4 -4,6 6,9 2,9 183,2 -1,3 16,9 20,5 0,0
27.3.12 1035,2 1032,0 1033,5 7,6 49,0 -4,1 7,2 3,1 183,2 -3,2 19,7 19,7 0,0
28.3.12 1033,0 1025,8 1030,1 10,2 53,1 -1,2 9,8 3,1 183,2 0,3 20,6 25,5 0,0
29.3.12 1025,9 1017,5 1020,8 7,1 57,4 -1,0 4,8 8,3 184,3 2,2 13,2 29,5 1,1
30.3.12 1017,7 1015,4 1016,3 5,6 86,1 3,3 2,3 10,4 188,9 3,7 8,3 30,6 4,6
31.3.12 1016,0 1008,6 1011,8 5,0 67,8 -0,6 0,6 13,0 188,9 -0,9 8,8 32,4 0,0
1.4.12 1019,5 1014,8 1017,1 3,3 43,0 -10,5 2,1 5,4 188,9 -5,2 10,7 27,3 0,0
2.4.12 1015,0 1010,9 1013,1 4,9 52,9 -4,0 4,5 2,8 188,9 1,5 10,4 20,5 0,0
3.4.12 1011,2 1006,0 1008,3 9,6 50,5 -2,1 9,4 1,4 188,9 3,7 18,1 14,4 0,0
4.4.12 1015,4 1006,5 1009,8 9,9 63,9 2,8 8,6 6,0 191,0 4,2 15,1 27,3 2,1
5.4.12 1018,0 1015,3 1016,8 4,2 85,1 1,8 2,9 6,0 191,0 2,4 6,3 25,9 0,0
6.4.12 1017,4 1010,2 1013,6 2,4 81,9 -0,4 2,0 3,6 191,0 0,9 4,1 23,0 0,0
7.4.12 1010,2 1006,3 1007,6 0,9 70,2 -4,5 -0,4 4,7 194,3 -3,3 6,5 46,4 3,3
8.4.12 1017,3 1009,6 1013,8 -0,5 41,5 -13,2 -1,3 4,4 194,3 -4,3 4,4 25,2 0,0
9.4.12 1017,2 1008,4 1012,0 1,2 55,4 -7,7 0,4 3,6 194,3 -7,2 8,6 37,0 0,0
10.4.12 1008,3 1001,2 1004,9 9,5 59,5 0,8 8,8 4,0 194,3 4,6 16,7 36,0 0,0
11.4.12 1006,3 1000,8 1002,9 6,5 79,3 3,0 6,4 1,4 209,6 3,4 10,7 19,0 15,3
12.4.12 1006,6 1004,9 1005,9 7,2 74,0 2,0 7,0 1,4 216,7 3,5 14,1 27,3 7,1
13.4.12 1008,5 1006,2 1007,6 6,3 69,4 0,4 6,2 1,3 216,7 1,2 12,3 16,9 0,0
14.4.12 1008,3 1005,5 1007,1 5,6 55,9 -4,1 5,2 3,0 216,7 -3,6 14,2 26,2 0,0
15.4.12 1011,6 1006,6 1008,4 4,0 73,0 -0,5 2,9 4,4 217,7 -1,3 8,2 28,0 1,0
16.4.12 1020,3 1011,5 1016,0 4,3 60,5 -3,8 2,1 7,8 219,6 -0,9 9,4 35,6 1,9
17.4.12 1020,4 1008,8 1015,6 2,6 46,3 -9,9 2,2 1,9 219,6 -5,8 10,1 32,4 0,0
18.4.12 1008,8 1000,0 1003,7 5,3 52,5 -3,7 5,0 2,0 219,6 -0,1 10,6 33,1 0,0
19.4.12 1000,2 997,3 998,5 6,7 60,1 -1,4 6,6 1,0 219,8 -0,7 14,7 23,4 0,2
20.4.12 1004,7 998,6 1001,0 6,7 69,1 0,8 6,5 1,4 225,8 0,8 13,8 26,6 6,0
21.4.12 1007,8 1004,9 1006,3 7,0 64,2 0,1 6,3 3,4 227,1 0,3 12,8 41,0 1,3
22.4.12 1012,2 1007,1 1010,1 7,6 64,6 0,4 6,9 4,5 237,9 4,2 13,3 32,0 10,8
23.4.12 1012,7 1005,5 1010,0 5,8 68,0 0,0 5,3 3,0 240,5 0,2 11,4 35,2 2,6
24.4.12 1005,4 1002,2 1003,1 7,2 67,8 1,5 6,9 2,8 240,7 2,7 11,4 23,0 0,2
25.4.12 1010,2 1004,0 1008,1 9,4 59,8 0,8 8,5 4,6 242,2 5,4 14,2 37,4 1,5
26.4.12 1017,3 1009,0 1012,5 14,7 37,8 -0,5 14,2 4,1 242,2 8,6 22,0 21,6 0,0
27.4.12 1022,1 1017,0 1020,1 15,3 48,6 2,3 15,2 1,9 242,2 3,4 25,8 30,2 0,0
28.4.12 1022,3 1015,5 1019,4 20,0 40,8 3,8 19,9 2,7 242,2 8,7 29,7 20,5 0,0
29.4.12 1015,6 1011,8 1013,2 20,7 33,4 3,1 20,3 4,8 242,2 15,4 27,8 38,1 0,0
30.4.12 1021,0 1015,8 1019,4 18,0 42,3 4,0 17,2 6,3 242,2 12,6 23,7 37,4 0,0
1.5.12 1020,3 1017,4 1018,7 18,4 60,7 9,4 18,3 2,0 244,7 8,7 27,5 12,9 2,5
2.5.12 1020,0 1014,6 1016,9 18,0 64,4 10,2 18,0 1,4 252,0 11,2 28,1 24,8 7,3
3.5.12 1017,0 1010,3 1014,1 14,7 68,4 8,2 14,3 3,4 252,6 10,8 19,7 13,3 0,6
4.5.12 1014,2 1008,3 1011,0 14,0 52,3 1,7 13,7 2,8 252,6 4,2 22,4 26,6 0,0
5.5.12 1009,9 1007,2 1008,5 11,6 66,1 5,0 11,2 2,4 256,2 5,8 20,1 19,8 3,6
6.5.12 1016,2 1009,7 1012,8 9,9 83,6 7,2 9,9 1,5 267,2 7,4 13,7 10,4 11,0
7.5.12 1023,0 1020,7 1022,2 14,3 36,8 -2,4 14,2 1,5 267,4 2,5 23,3 31,3 0,2
8.5.12 1022,3 1017,9 1020,1 12,7 61,8 3,7 12,4 2,0 267,4 3,9 20,1 35,2 0,0
9.5.12 1023,3 1018,5 1020,3 14,6 65,1 7,9 14,3 3,1 269,6 8,7 20,1 32,0 2,2
10.5.12 1026,3 1023,4 1025,3 18,7 58,8 8,8 18,4 3,3 269,6 8,5 27,1 40,3 0,0
11.5.12 1026,8 1022,9 1025,4 23,4 43,2 9,4 23,1 4,7 274,8 16,4 30,5 37,8 5,2
12.5.12 1034,4 1025,2 1030,1 11,6 64,2 4,3 10,4 5,5 280,2 6,5 17,5 30,2 5,4
13.5.12 1034,6 1029,1 1032,0 6,6 53,0 -3,3 6,1 3,0 280,2 -0,1 12,5 23,4 0,0
14.5.12 1029,0 1019,3 1024,1 7,4 47,9 -4,7 7,2 1,7 280,2 -2,5 15,6 27,7 0,0
15.5.12 1019,3 1010,5 1014,1 8,9 52,7 -1,4 8,4 3,5 281,1 1,8 16,5 37,0 0,9
16.5.12 1024,9 1013,7 1018,9 7,1 65,3 0,4 5,8 6,0 283,9 3,5 13,0 29,8 2,8
17.5.12 1026,2 1021,1 1024,5 7,6 47,6 -5,5 7,3 2,9 283,9 -1,8 15,5 20,8 0,0
18.5.12 1021,3 1016,0 1018,0 10,2 33,7 -6,2 9,6 3,8 283,9 4,2 17,8 33,8 0,0
19.5.12 1018,9 1015,0 1017,2 16,6 35,0 0,2 16,4 2,7 283,9 10,0 24,1 30,6 0,0
20.5.12 1015,4 1009,2 1012,3 19,2 35,3 2,7 19,0 3,3 283,9 11,2 26,4 33,8 0,0
21.5.12 1009,1 1005,1 1006,2 19,8 40,5 5,8 19,6 3,5 283,9 14,9 24,3 31,6 0,0
22.5.12 1017,0 1006,5 1010,9 20,5 45,0 7,3 20,2 3,6 283,9 12,5 28,1 30,2 0,0
23.5.12 1025,8 1017,0 1021,8 21,6 50,5 9,2 21,4 3,7 285,5 13,1 28,7 31,2 1,6
24.5.12 1029,4 1025,9 1028,0 18,5 53,9 7,4 17,9 5,4 285,5 11,5 26,1 36,0 0,0
25.5.12 1029,3 1026,2 1028,0 16,3 40,4 0,9 15,7 5,2 285,5 6,3 23,2 22,6 0,0
26.5.12 1026,8 1024,1 1025,6 15,5 39,6 -0,6 15,0 4,5 285,5 4,3 24,3 30,9 0,0
27.5.12 1024,9 1020,9 1023,2 15,5 47,5 3,2 15,5 0,7 285,9 10,2 22,3 19,0 0,4
28.5.12 1021,3 1016,3 1018,6 15,8 55,3 5,4 15,7 2,0 286,8 6,5 24,4 21,2 0,9
29.5.12 1018,6 1016,0 1016,8 17,2 50,6 4,7 16,8 4,3 286,8 7,1 25,5 37,8 0,0
30.5.12 1022,7 1018,6 1020,0 15,9 57,2 6,8 15,6 2,7 293,7 8,7 23,1 22,6 6,9
31.5.12 1022,8 1015,5 1020,7 16,1 58,0 6,7 15,7 3,5 295,4 7,5 22,7 32,7 1,7
1.6.12 1020,2 1015,2 1017,7 11,9 82,0 8,8 11,0 4,8 320,0 9,5 15,1 32,4 24,6
2.6.12 1020,0 1017,0 1018,7 11,8 64,7 4,8 11,3 3,5 320,0 7,7 16,9 27,0 0,0
3.6.12 1017,4 1008,3 1012,9 11,7 81,3 8,4 11,6 1,2 330,1 4,2 18,2 11,8 10,1
4.6.12 1014,8 1011,8 1013,7 13,7 71,6 8,1 13,3 3,5 332,6 10,6 20,1 31,6 2,5
5.6.12 1022,0 1012,2 1018,3 9,3 72,0 3,9 8,4 5,0 347,0 5,1 12,6 28,4 14,4
6.6.12 1020,6 1012,5 1015,6 9,5 72,0 4,4 9,2 2,2 348,1 2,5 16,9 29,5 1,1
7.6.12 1014,6 1008,9 1012,6 16,5 67,0 9,4 16,2 2,4 352,2 8,5 22,1 24,4 4,1
8.6.12 1016,7 1009,9 1013,1 17,9 66,6 11,1 17,4 4,2 353,6 13,4 22,7 41,0 1,4
9.6.12 1019,3 1016,5 1018,0 15,8 55,7 5,7 15,3 3,7 354,2 11,3 21,2 20,5 0,6
10.6.12 1018,5 1012,4 1015,7 15,1 47,9 3,2 15,0 1,3 354,2 8,8 20,9 15,4 0,0
11.6.12 1012,4 1006,8 1008,7 13,7 77,8 9,7 13,6 1,3 366,5 10,1 18,3 9,0 12,3
12.6.12 1008,4 1005,7 1006,5 14,7 70,3 8,6 14,7 1,1 366,5 5,7 22,3 6,8 0,0
13.6.12 1019,3 1009,4 1014,5 12,6 82,3 9,6 12,5 0,9 382,4 11,1 14,4 13,6 15,9
14.6.12 1023,3 1019,3 1021,7 12,6 81,5 9,1 12,5 1,6 390,0 9,7 18,9 16,2 7,6
15.6.12 1023,6 1020,5 1022,3 15,6 68,4 8,9 15,5 1,3 390,0 9,1 22,8 33,1 0,0
16.6.12 1022,4 1019,7 1021,2 20,9 57,1 10,7 20,6 4,0 392,7 12,6 29,5 37,4 2,7
17.6.12 1027,8 1022,8 1025,8 16,8 59,9 8,3 16,3 3,5 392,7 12,9 22,5 18,3 0,0
18.6.12 1025,6 1019,1 1021,5 21,9 52,2 10,3 21,8 2,9 392,7 11,7 31,2 35,6 0,0
19.6.12 1024,9 1020,3 1023,0 20,8 55,1 10,8 20,7 1,8 392,7 14,6 28,8 23,7 0,0
20.6.12 1020,6 1016,3 1018,3 20,5 76,3 16,0 20,4 2,0 396,2 14,9 25,8 24,1 3,5
21.6.12 1016,9 1015,1 1015,9 19,7 71,7 14,1 19,6 2,1 396,2 16,3 23,9 15,1 0,0
22.6.12 1025,9 1016,5 1021,7 18,1 56,5 7,9 17,5 5,1 396,4 12,7 22,8 34,2 0,2
23.6.12 1028,0 1026,1 1027,1 16,2 48,0 3,5 15,9 3,3 396,4 6,5 23,7 36,0 0,0
24.6.12 1027,5 1016,2 1022,5 17,7 52,9 6,4 17,0 5,7 398,5 7,7 25,3 46,4 2,1
25.6.12 1021,1 1016,5 1018,5 13,8 66,5 7,3 12,4 7,2 400,7 11,4 18,2 36,0 2,2
26.6.12 1025,5 1021,2 1023,6 13,8 60,0 5,2 12,9 5,3 400,7 8,9 19,0 27,3 0,0
27.6.12 1025,7 1020,4 1023,4 15,8 58,9 6,7 15,4 4,0 400,7 4,8 24,5 24,8 0,0
28.6.12 1020,5 1015,9 1018,7 21,6 52,9 9,7 21,6 1,5 400,7 13,5 30,4 16,9 0,0
29.6.12 1017,3 1015,2 1016,3 25,0 42,1 9,9 24,9 2,3 400,7 16,3 33,1 28,8 0,0
30.6.12 1019,4 1015,4 1017,6 25,7 48,1 12,8 25,7 1,7 400,7 17,5 34,2 27,7 0,0
1.7.12 1025,1 1016,2 1020,9 17,6 79,6 13,8 17,3 3,2 411,8 14,2 25,3 59,7 11,1
2.7.12 1025,8 1019,7 1023,6 16,5 78,6 12,2 16,4 1,6 416,3 11,0 22,1 20,5 4,5
3.7.12 1022,9 1020,7 1021,8 18,0 79,5 13,8 17,9 1,0 416,3 14,3 25,5 14,7 0,0
4.7.12 1022,0 1017,4 1019,7 20,9 63,8 12,7 20,8 1,3 416,3 14,1 28,7 19,0 0,0
5.7.12 1018,6 1014,6 1016,7 20,2 73,2 14,8 20,1 1,5 425,6 15,1 28,8 29,5 9,3
6.7.12 1018,4 1014,5 1016,3 21,0 67,9 13,9 20,9 2,7 425,6 15,7 28,5 33,8 0,0
7.7.12 1019,0 1017,6 1018,3 19,0 69,2 12,5 19,0 0,8 426,7 14,8 25,8 15,4 1,1
8.7.12 1018,7 1014,2 1016,2 18,6 67,1 11,6 18,4 2,5 428,6 12,3 24,4 45,3 1,9
9.7.12 1019,0 1016,8 1018,1 18,7 50,3 7,5 18,1 5,5 428,6 14,4 24,1 37,0 0,0
10.7.12 1019,2 1016,8 1018,2 19,6 51,8 8,0 19,4 3,4 428,6 13,4 26,8 36,0 0,0
11.7.12 1018,9 1017,0 1017,8 17,7 54,1 7,0 17,1 5,1 430,3 13,2 22,2 35,6 1,7
12.7.12 1020,5 1017,1 1018,9 14,0 61,7 6,4 12,9 6,8 431,8 10,3 20,7 45,1 1,5
13.7.12 1020,3 1011,0 1015,4 12,6 78,3 8,8 12,1 3,3 435,7 7,5 17,7 37,0 3,9
14.7.12 1014,8 1007,2 1010,9 16,0 69,6 10,0 14,8 7,6 440,8 12,6 20,4 48,6 5,1
15.7.12 1021,5 1014,7 1017,2 13,9 70,6 8,4 13,5 3,1 446,6 10,2 19,3 30,5 5,8
16.7.12 1027,8 1021,5 1025,6 13,6 69,2 7,4 12,7 5,3 447,2 10,7 17,6 30,9 0,6
17.7.12 1026,7 1022,0 1024,2 13,6 84,1 10,9 12,7 6,2 467,1 11,7 17,1 30,6 19,9
18.7.12 1026,1 1015,9 1021,7 17,6 69,3 10,8 17,2 4,3 467,1 12,7 24,8 33,8 0,0
19.7.12 1016,4 1012,9 1014,4 18,2 53,2 8,3 17,2 6,9 467,7 15,1 21,4 41,0 0,6
20.7.12 1020,7 1016,6 1018,6 15,0 63,5 7,7 14,6 3,3 472,4 11,9 20,1 34,2 4,7
21.7.12 1026,5 1020,4 1022,5 13,3 81,3 9,9 13,1 1,2 477,7 10,7 19,6 13,6 5,3
22.7.12 1032,3 1026,6 1029,6 13,5 63,6 5,4 13,3 2,4 478,3 7,0 20,5 21,6 0,6
23.7.12 1032,9 1028,3 1031,2 15,3 53,0 3,5 15,2 1,4 478,3 4,2 23,8 13,3 0,0
24.7.12 1028,6 1020,8 1024,3 20,0 50,3 7,9 19,9 2,4 478,3 9,5 29,2 27,0 0,0
25.7.12 1021,1 1018,7 1020,1 23,4 50,1 11,1 23,4 1,5 478,3 13,5 32,2 25,2 0,0
26.7.12 1022,1 1019,8 1021,0 22,8 60,7 13,8 22,8 1,1 483,6 14,9 32,3 29,5 5,3
27.7.12 1022,3 1015,8 1019,5 24,4 55,4 12,1 24,3 0,9 483,6 15,1 33,4 23,0 0,0
28.7.12 1016,4 1013,6 1014,8 22,9 50,6 11,8 22,7 3,7 484,9 18,8 27,5 36,3 1,3
29.7.12 1021,2 1014,0 1016,3 19,0 66,4 12,1 18,6 4,0 487,2 14,9 22,4 34,2 2,3
30.7.12 1023,0 1021,0 1021,8 15,9 52,3 4,9 15,5 3,9 487,2 7,5 22,1 35,6 0,0
31.7.12 1023,8 1022,5 1023,2 16,4 59,7 8,2 16,1 2,8 487,4 12,4 21,4 25,2 0,2
1.8.12 1023,8 1018,2 1021,6 20,1 49,8 6,7 20,1 0,8 487,4 10,5 29,2 19,0 0,0
2.8.12 1020,3 1017,9 1018,8 22,9 45,4 9,6 22,8 3,2 487,4 15,7 30,1 33,8 0,0
3.8.12 1021,5 1019,9 1020,7 20,6 52,8 9,0 20,5 2,3 488,8 15,7 26,7 35,6 1,4
4.8.12 1021,4 1017,8 1019,8 20,2 48,2 7,4 20,2 1,3 488,8 11,9 28,5 13,3 0,0
5.8.12 1018,3 1013,9 1016,3 21,1 54,6 10,7 21,1 1,8 488,8 14,5 28,4 30,6 0,0
6.8.12 1020,8 1013,9 1017,0 18,9 63,9 11,8 18,7 3,3 489,7 15,5 23,1 23,4 0,9
7.8.12 1026,7 1020,7 1024,2 16,5 63,7 8,9 15,8 4,8 492,1 13,3 22,7 33,4 2,4
8.8.12 1027,8 1026,4 1027,0 16,3 58,8 6,9 16,2 2,2 492,1 10,9 22,2 23,0 0,0
9.8.12 1028,1 1026,8 1027,5 15,7 60,8 7,5 15,6 1,2 492,1 8,0 22,5 13,3 0,0
10.8.12 1028,7 1026,7 1027,8 16,0 60,6 7,6 15,7 3,0 492,1 12,1 22,1 21,6 0,0
11.8.12 1027,5 1024,8 1026,2 13,9 61,1 5,9 13,7 1,8 492,1 7,6 20,7 16,9 0,0
12.8.12 1025,0 1020,1 1022,1 14,8 53,5 3,3 14,7 1,5 492,1 4,7 23,0 25,2 0,0
13.8.12 1021,7 1019,4 1020,6 16,8 44,3 3,2 16,8 1,0 492,1 7,5 24,3 15,8 0,0
14.8.12 1020,9 1019,2 1020,2 18,0 42,8 2,9 18,0 1,1 492,1 7,0 28,3 16,9 0,0
15.8.12 1020,3 1017,3 1018,6 19,6 52,5 8,5 19,6 0,0 492,1 8,9 30,4 22,3 0,0
16.8.12 1025,8 1017,0 1021,1 16,4 71,7 11,0 16,4 0,7 496,0 12,7 19,0 15,8 3,9
17.8.12 1026,8 1025,1 1025,9 18,2 59,2 7,1 18,2 0,9 496,2 9,2 27,1 18,3 0,2
18.8.12 1027,0 1025,7 1026,4 21,5 44,4 6,5 21,5 0,4 496,2 10,6 31,6 6,4 0,0
19.8.12 1027,4 1024,1 1026,1 24,6 38,6 7,3 24,6 2,5 496,2 13,7 35,3 33,1 0,0
20.8.12 1024,9 1022,5 1023,9 26,8 37,2 9,3 26,8 2,8 496,2 15,7 36,7 29,5 0,0
21.8.12 1025,6 1019,2 1023,0 26,3 45,9 11,9 26,3 2,2 496,2 19,2 33,6 29,1 0,0
22.8.12 1021,8 1017,2 1020,0 21,9 58,8 12,5 21,6 3,6 503,3 15,1 27,2 24,1 7,1
23.8.12 1022,1 1017,3 1020,4 18,6 45,9 4,5 18,6 1,5 503,3 9,1 26,9 20,1 0,0
24.8.12 1017,3 1013,1 1014,2 18,4 67,2 11,8 18,1 2,8 509,8 12,6 24,5 38,8 6,5
25.8.12 1015,2 1013,0 1014,4 20,1 60,8 11,5 19,8 3,6 509,8 16,7 26,5 39,6 0,0
26.8.12 1021,2 1014,3 1016,4 16,3 73,2 11,2 15,6 4,3 514,0 12,9 20,3 34,5 4,2
27.8.12 1026,6 1021,3 1024,5 15,8 67,2 8,2 15,7 1,8 514,2 11,2 22,6 19,0 0,2
28.8.12 1024,8 1021,7 1022,9 16,9 54,0 5,9 16,9 1,8 514,2 7,8 26,7 36,7 0,0
29.8.12 1025,1 1021,4 1023,7 21,3 45,7 7,8 21,2 1,7 514,2 15,2 28,3 30,9 0,0
30.8.12 1022,6 1020,0 1021,4 18,3 62,2 10,6 18,2 1,3 520,1 14,4 22,6 19,4 5,9
31.8.12 1022,5 1018,8 1020,1 13,9 87,2 11,8 13,8 1,3 520,1 12,4 16,1 14,7 0,0
1.9.12 1027,5 1022,2 1025,1 13,0 83,6 10,0 12,6 3,0 520,3 11,1 18,2 24,4 0,2
2.9.12 1028,2 1025,2 1026,8 13,9 73,7 8,6 13,9 0,8 520,6 6,5 22,1 17,2 0,3
3.9.12 1027,2 1024,2 1025,8 16,7 64,5 8,5 16,6 2,1 520,6 7,5 26,3 22,6 0,0
4.9.12 1025,6 1022,5 1024,2 17,7 58,0 8,3 17,6 2,1 520,6 8,3 26,1 18,7 0,0
5.9.12 1024,2 1021,5 1022,4 16,2 68,3 9,2 16,0 2,4 522,4 8,1 27,6 31,6 1,8
6.9.12 1028,7 1024,2 1026,9 12,8 67,4 6,2 12,7 1,8 522,4 7,2 17,7 18,7 0,0
7.9.12 1027,9 1024,7 1026,4 13,0 55,3 2,0 12,7 2,8 522,4 1,9 23,7 27,3 0,0
8.9.12 1026,0 1022,6 1024,5 17,6 54,9 7,6 17,6 1,5 522,4 9,1 26,7 23,7 0,0
9.9.12 1023,6 1019,0 1021,7 18,8 56,4 8,0 18,8 1,2 522,4 9,2 27,7 28,9 0,0
10.9.12 1020,6 1019,3 1019,8 21,3 49,3 8,0 21,3 2,0 522,4 12,6 30,7 28,8 0,0
11.9.12 1020,3 1013,5 1017,2 20,4 55,1 9,5 20,3 2,3 525,3 14,9 29,1 31,6 2,9
12.9.12 1015,5 1013,5 1014,7 12,5 81,9 9,2 12,3 1,7 534,5 9,1 16,8 20,1 9,2
13.9.12 1020,9 1015,0 1017,5 10,8 66,8 3,9 10,6 1,4 534,5 5,2 16,8 18,3 0,0
14.9.12 1021,3 1013,5 1017,8 10,3 60,6 1,7 9,9 3,5 534,5 0,7 19,4 49,6 0,0
15.9.12 1022,1 1014,3 1018,5 12,8 66,3 6,3 12,3 3,9 534,5 9,3 15,8 23,0 0,0
16.9.12 1022,2 1017,8 1020,4 12,6 62,7 4,3 12,5 0,6 534,5 3,2 21,1 23,7 0,0
17.9.12 1018,4 1016,3 1017,5 14,3 65,2 7,2 14,2 1,2 534,5 8,0 22,6 16,9 0,0
18.9.12 1018,4 1013,2 1015,5 16,0 63,8 7,9 15,8 2,4 534,5 7,8 25,0 25,2 0,0
19.9.12 1023,1 1013,9 1018,4 11,2 67,6 4,8 11,0 2,4 542,9 4,8 15,7 25,9 8,4
20.9.12 1026,0 1023,1 1024,9 7,5 63,2 -0,1 7,3 1,6 542,9 0,2 15,5 24,4 0,0
21.9.12 1025,2 1015,3 1021,4 9,1 58,9 0,2 9,0 0,9 542,9 1,4 16,1 29,1 0,0
22.9.12 1021,8 1012,2 1015,7 10,8 69,2 4,9 10,1 3,7 546,4 3,5 16,3 30,9 3,5
23.9.12 1022,3 1013,0 1019,3 7,9 66,6 1,2 7,9 0,8 546,4 0,7 15,5 20,8 0,0
24.9.12 1012,5 1003,7 1006,8 13,1 65,6 6,5 12,7 2,8 549,1 8,5 21,5 31,3 2,7
25.9.12 1009,1 1006,6 1008,1 13,5 67,5 6,8 13,2 2,6 549,5 6,8 21,4 39,9 0,4
26.9.12 1008,7 1005,4 1006,5 14,4 71,5 8,4 14,4 1,0 549,7 7,5 24,3 27,7 0,2
27.9.12 1015,6 1006,3 1011,4 12,1 75,3 7,6 11,3 4,3 553,4 8,9 15,3 37,4 3,7
28.9.12 1022,0 1015,6 1019,9 12,0 74,0 6,9 11,8 2,2 553,4 6,2 17,8 27,7 0,0
29.9.12 1021,1 1017,7 1019,4 10,8 70,8 4,9 10,5 2,0 553,4 3,2 20,4 28,4 0,0
30.9.12 1025,1 1021,1 1023,4 10,5 63,7 2,1 10,5 0,5 553,4 0,9 21,1 16,9 0,0
1.10.12 1023,4 1019,0 1020,6 10,0 68,4 3,8 9,9 0,8 553,4 2,3 19,1 15,1 0,0
2.10.12 1021,0 1019,9 1020,4 13,6 62,3 5,7 13,3 2,3 553,4 6,7 19,7 30,2 0,0
3.10.12 1020,6 1016,9 1018,6 11,6 66,3 4,5 11,0 3,5 553,4 4,0 21,2 37,0 0,0
4.10.12 1019,5 1010,0 1014,5 11,8 72,8 6,9 9,7 9,5 560,3 5,8 16,1 47,5 6,9
5.10.12 1020,8 1014,5 1017,6 10,9 76,7 6,5 10,1 4,9 560,3 3,5 18,5 73,0 0,0
6.10.12 1017,5 1013,3 1015,7 16,0 62,8 8,3 14,9 6,5 565,2 10,2 21,3 36,0 4,9
7.10.12 1023,9 1014,0 1018,0 8,4 81,1 4,9 8,0 2,8 568,1 2,5 13,4 25,2 2,9
8.10.12 1024,5 1016,5 1021,9 6,3 67,2 -0,5 6,3 1,1 568,1 -1,6 16,6 20,1 0,0
9.10.12 1017,5 1011,3 1013,9 7,9 66,9 1,5 7,6 2,5 568,4 2,3 15,7 23,7 0,3
10.10.12 1017,7 1015,6 1016,7 4,5 67,4 -1,7 4,4 1,2 568,4 -2,2 15,1 15,8 0,0
11.10.12 1018,0 1013,8 1016,2 4,2 67,3 -2,2 4,1 0,5 568,4 -3,4 12,8 20,8 0,0
12.10.12 1015,4 1011,0 1012,5 6,9 80,0 3,5 6,8 1,1 569,6 1,0 10,8 29,5 1,2
13.10.12 1017,9 1010,0 1015,4 8,1 73,5 3,2 7,9 1,6 569,6 3,5 14,2 23,0 0,0
14.10.12 1010,2 1002,7 1007,0 8,8 65,3 2,4 8,3 2,9 569,6 4,4 12,7 16,2 0,0
15.10.12 1014,5 1001,7 1007,1 7,3 77,7 3,6 6,4 3,8 569,6 5,6 9,8 41,7 0,0
16.10.12 1014,8 1012,8 1014,1 7,7 67,1 1,3 7,3 2,6 569,6 3,1 13,2 33,1 0,0
17.10.12 1017,9 1014,9 1016,8 9,6 65,8 3,2 9,6 0,7 569,6 2,6 14,9 9,3 0,0
18.10.12 1019,9 1017,4 1018,2 9,9 77,8 6,1 9,5 2,6 569,6 7,2 13,2 31,6 0,0
19.10.12 1020,5 1018,6 1019,7 11,4 80,3 7,6 11,0 2,9 569,6 7,7 19,9 26,2 0,0
20.10.12 1022,5 1019,9 1021,4 13,1 75,4 7,5 13,0 0,8 569,6 6,5 25,8 17,2 0,0
21.10.12 1023,1 1020,5 1021,3 10,7 72,7 4,8 10,7 0,3 569,6 1,9 22,3 15,8 0,0
22.10.12 1026,2 1022,7 1024,2 8,1 89,5 6,4 8,1 1,0 569,6 4,8 11,6 16,9 0,0
23.10.12 1027,2 1025,5 1026,1 10,8 78,1 6,7 10,8 1,1 569,6 8,1 17,5 17,2 0,0
24.10.12 1025,4 1020,2 1022,4 7,5 90,7 6,0 7,5 0,2 569,6 5,9 9,4 11,1 0,0
25.10.12 1020,3 1013,9 1016,6 6,5 95,5 5,8 6,4 1,0 569,8 5,3 7,7 16,9 0,2
26.10.12 1014,6 1003,3 1011,5 3,2 84,1 0,8 3,1 1,6 577,0 0,6 6,8 19,9 7,2
27.10.12 1008,4 996,8 1001,1 -1,0 94,5 -1,8 -2,9 5,8 577,6 -2,7 1,2 42,1 0,6
28.10.12 1018,0 1008,4 1013,7 -1,9 87,3 -3,7 -2,3 2,8 577,6 -7,1 1,0 23,0 0,0
29.10.12 1018,3 1012,2 1016,2 -2,8 78,0 -6,3 -3,0 1,1 583,1 -7,6 6,3 22,6 5,5
30.10.12 1012,2 1006,5 1008,2 0,9 87,3 -0,9 0,5 2,9 584,4 -1,6 2,7 27,0 1,3
31.10.12 1008,0 1000,8 1005,9 4,2 83,6 1,4 4,0 1,4 584,4 1,7 9,6 27,3 0,0
1.11.12 1000,4 993,0 995,4 4,5 84,9 2,1 4,1 2,6 584,4 1,4 8,8 33,8 0,0
2.11.12 1006,2 996,9 1003,3 6,2 68,3 0,5 4,0 8,0 591,0 3,6 10,2 51,4 6,6
3.11.12 1009,0 1003,2 1006,2 7,0 83,9 4,4 5,4 6,6 596,4 4,8 10,8 46,0 5,4
4.11.12 1009,7 1002,3 1006,5 6,5 89,4 4,8 6,3 1,2 600,8 4,2 9,8 25,2 4,4
5.11.12 1009,0 1001,7 1004,4 5,7 87,4 3,7 5,1 3,2 604,8 3,0 8,1 26,6 4,0
6.11.12 1020,2 1009,0 1015,4 2,4 90,5 1,0 1,6 4,0 612,8 0,4 4,2 25,5 8,0
7.11.12 1026,2 1019,3 1022,7 3,9 93,2 2,8 1,4 8,4 613,7 2,2 5,4 40,6 0,9
8.11.12 1025,7 1019,3 1022,0 5,1 86,2 2,9 4,1 4,6 613,7 4,4 5,9 35,2 0,0
9.11.12 1021,3 1015,8 1019,2 5,2 82,5 2,3 5,0 1,7 613,7 2,5 8,4 19,0 0,0
10.11.12 1015,7 1007,1 1010,5 4,0 78,5 0,6 3,6 2,9 613,7 2,3 6,1 26,2 0,0
11.11.12 1020,2 1008,3 1012,7 6,4 95,2 5,7 6,2 1,4 623,6 4,7 8,5 19,8 9,9
12.11.12 1030,0 1020,2 1025,2 6,1 91,5 4,8 6,1 0,5 623,8 4,0 9,2 11,8 0,2
13.11.12 1033,7 1030,0 1032,4 2,5 82,4 -0,5 2,5 0,3 623,8 -2,2 10,2 6,4 0,0
14.11.12 1033,0 1027,7 1030,8 0,1 85,8 -2,0 0,1 1,0 623,8 -4,5 6,8 17,2 0,0
15.11.12 1027,9 1022,5 1025,1 -1,3 86,7 -3,2 -1,4 1,4 623,8 -2,3 -0,2 20,8 0,0
16.11.12 1022,7 1019,3 1021,0 -1,2 85,8 -3,2 -1,5 1,5 623,8 -2,6 0,1 25,5 0,0
17.11.12 1019,4 1014,5 1016,3 -0,8 88,2 -2,5 -1,0 1,4 623,8 -1,9 0,7 20,8 0,0
18.11.12 1018,2 1014,0 1015,4 1,2 89,8 -0,3 1,1 1,0 623,8 -1,6 5,2 15,8 0,0
19.11.12 1021,0 1018,3 1020,0 4,0 82,5 1,0 3,9 1,2 623,8 -0,9 11,2 16,9 0,0
20.11.12 1022,0 1020,6 1021,3 3,8 92,9 2,7 3,7 0,7 623,8 1,8 4,5 18,0 0,0
21.11.12 1021,7 1018,8 1020,0 3,9 90,4 2,4 3,6 1,9 623,8 2,4 5,1 23,0 0,0
22.11.12 1026,4 1021,7 1024,7 4,6 83,7 1,9 4,5 1,1 623,8 -1,3 11,2 19,0 0,0
23.11.12 1024,7 1021,3 1022,6 3,8 91,6 2,5 3,6 1,5 623,8 0,2 5,1 29,1 0,0
24.11.12 1022,5 1018,9 1021,3 4,7 87,2 2,6 4,5 1,9 623,8 3,3 10,2 20,8 0,0
25.11.12 1019,1 1014,9 1016,9 6,8 74,9 2,3 5,8 4,0 623,8 3,3 11,1 40,3 0,0
26.11.12 1018,0 1008,7 1013,3 4,5 77,9 0,8 4,3 1,0 623,8 -2,1 9,5 17,6 0,0
27.11.12 1009,4 1007,2 1008,4 5,7 87,3 3,7 5,7 0,2 623,8 4,2 7,4 11,8 0,0
28.11.12 1007,5 999,8 1003,6 4,4 94,4 3,5 3,0 5,3 624,8 2,8 5,2 32,7 1,0
29.11.12 1003,0 994,6 997,6 0,1 95,6 -0,5 -1,0 4,2 627,2 -1,2 2,7 32,4 2,4
30.11.12 1012,6 1003,1 1007,5 -1,6 90,3 -2,9 -1,6 0,0 627,2 -6,5 0,1 0,0 0,0
1.12.12 1015,4 1012,7 1014,3 -6,3 76,4 -9,9 -6,3 0,0 629,4 -11,9 2,6 0,0 2,2
2.12.12 1013,8 1009,8 1011,1 -4,1 80,7 -6,9 -4,1 3,5 629,4 -7,9 -0,4 13,3 0,0
3.12.12 1016,5 1007,2 1013,1 -1,6 78,7 -4,8 -1,6 5,4 630,3 -3,1 3,0 15,4 0,9
4.12.12 1006,5 999,5 1001,4 0,0 88,4 -1,6 -0,3 2,0 630,3 -2,5 1,1 33,1 0,0
5.12.12 1005,2 999,4 1002,3 -0,4 79,9 -3,5 -0,9 2,7 630,3 -2,4 2,5 27,3 0,0
6.12.12 1016,1 1004,4 1010,1 -3,7 72,5 -7,9 -5,1 5,4 630,3 -5,9 -1,1 25,5 0,0
7.12.12 1016,0 1006,7 1011,1 -7,1 71,2 -11,5 -7,3 1,7 630,3 -11,4 -4,5 25,9 0,0
8.12.12 1023,8 1010,6 1018,2 -10,1 64,8 -15,5 -10,1 0,2 630,3 -14,5 -1,9 16,4 0,0
9.12.12 1023,9 1008,0 1017,1 -6,6 75,5 -10,2 -8,9 6,9 630,3 -10,3 -1,8 39,9 0,0
10.12.12 1011,7 1003,3 1006,3 -0,8 88,6 -2,4 -2,6 6,7 630,3 -2,1 0,6 32,4 0,0
11.12.12 1022,0 1011,9 1017,9 -5,2 79,2 -8,2 -6,6 6,4 630,3 -8,4 -2,1 30,9 0,0
12.12.12 1022,5 1018,8 1020,8 -7,3 74,8 -11,0 -7,8 2,8 630,3 -10,5 -5,2 21,2 0,0
13.12.12 1018,8 1012,5 1015,8 -6,3 68,9 -11,2 -6,5 1,4 630,3 -9,1 -3,3 19,0 0,0
14.12.12 1013,0 1005,0 1009,8 -5,0 67,0 -10,2 -6,1 4,1 630,3 -6,6 0,2 32,7 0,0
15.12.12 1010,1 1004,2 1006,6 -0,5 84,3 -2,8 -0,7 1,8 635,6 -5,6 4,2 21,2 5,3
16.12.12 1010,6 1008,9 1009,7 2,8 91,1 1,5 2,5 1,9 658,1 1,7 4,5 24,1 22,5
17.12.12 1009,6 1008,3 1009,1 2,3 91,8 1,1 2,3 0,4 660,8 1,5 3,6 16,5 2,7
18.12.12 1019,4 1009,5 1013,4 1,8 93,6 0,8 1,8 0,2 664,5 0,2 2,5 11,1 3,7
19.12.12 1025,2 1019,5 1023,1 1,5 93,7 0,6 1,5 0,9 664,5 0,8 2,8 12,2 0,0
20.12.12 1025,0 1014,1 1020,0 -0,1 82,1 -2,7 -0,6 2,9 664,5 -1,6 1,1 27,3 0,0
21.12.12 1017,2 1012,2 1013,8 -2,6 76,6 -6,1 -2,9 2,2 664,5 -3,0 -1,8 22,3 0,0
22.12.12 1020,1 1014,1 1018,0 0,3 88,7 -1,4 0,3 0,5 667,3 -2,4 3,1 18,0 2,8
23.12.12 1014,1 1009,5 1010,9 5,1 94,5 4,3 4,3 3,7 693,4 0,7 9,5 36,7 26,1
24.12.12 1013,5 1009,7 1011,9 9,3 76,1 5,1 8,3 4,9 693,4 6,7 12,3 39,2 0,0
25.12.12 1009,7 1005,6 1007,6 7,5 60,8 -0,3 6,1 6,3 696,3 2,5 14,7 49,3 2,9
26.12.12 1014,5 1009,8 1011,7 5,5 71,9 0,8 4,0 6,7 698,8 3,5 7,3 39,2 2,5
27.12.12 1014,3 1006,3 1008,9 4,7 82,2 1,9 2,9 6,9 707,2 2,6 6,2 70,2 8,4
28.12.12 1029,4 1009,1 1023,4 0,6 84,6 -1,6 0,2 2,5 715,9 -1,1 2,5 25,9 8,7
29.12.12 1028,0 1017,4 1022,8 3,4 73,4 -1,1 3,0 1,8 715,9 1,0 8,2 32,7 0,0
30.12.12 1022,1 1017,0 1018,9 3,7 69,5 -1,4 2,3 5,6 718,9 0,3 8,3 38,1 3,0
31.12.12 1022,5 1013,7 1019,6 4,5 66,7 -1,1 2,8 6,5 718,9 2,1 6,3 27,3 0,0